FIN292 UKWW-EFHK
Flight info
| Callsign | FIN292 |
|---|---|
| Flight time | 1h 58m |
| Altitude | 34000 |
| Route | KOROP L984 NALAD DCT TOLPA/N0452F340 DCT UNPEG/N0451F330 M857 BOKSU DCT ROLAV/N0450F340 DCT KEMET/N0451F330 Q11 INTOR |
| Aircraft | A321/M-SDE3FGHIRWY/LB1 |
Departure
| Time | 2026-05-08 06:56 |
|---|---|
| Airport | Vinnytsia/Gavyryshivka International Airport (UKWW) |
Arrival
| Time | 2026-05-08 08:54 |
|---|---|
| Airport | Helsinki Vantaa Airport (EFHK) |
| Time | Latitude | Longitude | Altitude | Speed | Heading |
|---|---|---|---|---|---|
| 2026-05-08 06:26 | 49.24290 | 28.60614 | 973 ft | 0 kts | 317° |
| 2026-05-08 06:50 | 49.24297 | 28.60604 | 984 ft | 4 kts | 317° |
| 2026-05-08 06:50 | 49.24319 | 28.60602 | 981 ft | 3 kts | 23° |
| 2026-05-08 06:50 | 49.24332 | 28.60631 | 977 ft | 3 kts | 76° |
| 2026-05-08 06:50 | 49.24321 | 28.60652 | 977 ft | 3 kts | 139° |
| 2026-05-08 06:51 | 49.24304 | 28.60675 | 978 ft | 4 kts | 135° |
| 2026-05-08 06:51 | 49.24302 | 28.60725 | 977 ft | 6 kts | 61° |
| 2026-05-08 06:51 | 49.24332 | 28.60777 | 977 ft | 7 kts | 48° |
| 2026-05-08 06:51 | 49.24367 | 28.60838 | 979 ft | 9 kts | 48° |
| 2026-05-08 06:52 | 49.24417 | 28.60922 | 981 ft | 12 kts | 48° |
| 2026-05-08 06:52 | 49.24484 | 28.61014 | 977 ft | 13 kts | 18° |
| 2026-05-08 06:52 | 49.24567 | 28.60952 | 968 ft | 15 kts | 319° |
| 2026-05-08 06:52 | 49.24647 | 28.60845 | 968 ft | 16 kts | 318° |
| 2026-05-08 06:53 | 49.24701 | 28.60770 | 969 ft | 16 kts | 318° |
| 2026-05-08 06:53 | 49.24820 | 28.60608 | 976 ft | 17 kts | 318° |
| 2026-05-08 06:53 | 49.24907 | 28.60490 | 977 ft | 17 kts | 318° |
| 2026-05-08 06:53 | 49.24967 | 28.60408 | 978 ft | 17 kts | 318° |
| 2026-05-08 06:54 | 49.25038 | 28.60308 | 976 ft | 7 kts | 312° |
| 2026-05-08 06:54 | 49.25061 | 28.60245 | 966 ft | 2 kts | 359° |
| 2026-05-08 06:54 | 49.25062 | 28.60259 | 981 ft | 1 kts | 94° |
| 2026-05-08 06:54 | 49.25057 | 28.60278 | 979 ft | 3 kts | 111° |
| 2026-05-08 06:55 | 49.25037 | 28.60311 | 976 ft | 5 kts | 136° |
| 2026-05-08 06:55 | 49.24917 | 28.60475 | 984 ft | 56 kts | 139° |
| 2026-05-08 06:55 | 49.24646 | 28.60845 | 968 ft | 101 kts | 138° |
| 2026-05-08 06:55 | 49.23974 | 28.61761 | 980 ft | 156 kts | 138° |
| 2026-05-08 06:56 | 49.23155 | 28.62855 | 1701 ft | 151 kts | 143° |
| 2026-05-08 06:56 | 49.22082 | 28.64194 | 2564 ft | 154 kts | 146° |
| 2026-05-08 06:56 | 49.21201 | 28.65270 | 2862 ft | 171 kts | 145° |
| 2026-05-08 06:56 | 49.20560 | 28.66080 | 3089 ft | 182 kts | 143° |
| 2026-05-08 06:57 | 49.19891 | 28.67787 | 3313 ft | 208 kts | 104° |
| 2026-05-08 06:57 | 49.20190 | 28.70084 | 3440 ft | 241 kts | 61° |
| 2026-05-08 06:57 | 49.21517 | 28.71842 | 3522 ft | 272 kts | 20° |
| 2026-05-08 06:57 | 49.23409 | 28.72107 | 3936 ft | 281 kts | 343° |
| 2026-05-08 06:58 | 49.25088 | 28.70704 | 4583 ft | 278 kts | 310° |
| 2026-05-08 06:58 | 49.26013 | 28.68185 | 5175 ft | 272 kts | 282° |
| 2026-05-08 06:58 | 49.26557 | 28.64433 | 6067 ft | 274 kts | 277° |
| 2026-05-08 06:58 | 49.26816 | 28.62498 | 6535 ft | 275 kts | 277° |
| 2026-05-08 06:59 | 49.27196 | 28.59606 | 7144 ft | 278 kts | 276° |
| 2026-05-08 06:59 | 49.27401 | 28.56705 | 7736 ft | 278 kts | 265° |
| 2026-05-08 06:59 | 49.27188 | 28.53790 | 8369 ft | 275 kts | 252° |
| 2026-05-08 06:59 | 49.26734 | 28.50934 | 9027 ft | 277 kts | 252° |
| 2026-05-08 07:00 | 49.26264 | 28.48058 | 9683 ft | 280 kts | 252° |
| 2026-05-08 07:00 | 49.25777 | 28.45162 | 10276 ft | 285 kts | 251° |
| 2026-05-08 07:00 | 49.25252 | 28.42128 | 10416 ft | 305 kts | 251° |
| 2026-05-08 07:00 | 49.24683 | 28.38896 | 10546 ft | 325 kts | 251° |
| 2026-05-08 07:01 | 49.24083 | 28.35513 | 10657 ft | 343 kts | 251° |
| 2026-05-08 07:01 | 49.23446 | 28.31899 | 10789 ft | 361 kts | 252° |
| 2026-05-08 07:01 | 49.22780 | 28.28119 | 10992 ft | 374 kts | 252° |
| 2026-05-08 07:01 | 49.22098 | 28.24250 | 11474 ft | 379 kts | 252° |
| 2026-05-08 07:02 | 49.21410 | 28.20345 | 12013 ft | 382 kts | 251° |
| 2026-05-08 07:02 | 49.20717 | 28.16407 | 12574 ft | 385 kts | 251° |
| 2026-05-08 07:02 | 49.20014 | 28.12440 | 13140 ft | 388 kts | 251° |
| 2026-05-08 07:02 | 49.19301 | 28.08446 | 13722 ft | 391 kts | 251° |
| 2026-05-08 07:03 | 49.18581 | 28.04419 | 14247 ft | 393 kts | 251° |
| 2026-05-08 07:03 | 49.17866 | 28.00430 | 14756 ft | 396 kts | 251° |
| 2026-05-08 07:03 | 49.17140 | 27.96366 | 15259 ft | 399 kts | 251° |
| 2026-05-08 07:03 | 49.16403 | 27.92257 | 15752 ft | 402 kts | 251° |
| 2026-05-08 07:04 | 49.15761 | 27.88081 | 16226 ft | 407 kts | 258° |
| 2026-05-08 07:04 | 49.15578 | 27.83733 | 16688 ft | 414 kts | 269° |
| 2026-05-08 07:04 | 49.15921 | 27.79330 | 17137 ft | 422 kts | 279° |
| 2026-05-08 07:04 | 49.16675 | 27.74976 | 17569 ft | 426 kts | 282° |
| 2026-05-08 07:05 | 49.17462 | 27.70601 | 18014 ft | 428 kts | 282° |
| 2026-05-08 07:05 | 49.18249 | 27.66196 | 18437 ft | 431 kts | 282° |
| 2026-05-08 07:05 | 49.19021 | 27.61822 | 18810 ft | 433 kts | 282° |
| 2026-05-08 07:05 | 49.19802 | 27.57363 | 19200 ft | 436 kts | 282° |
| 2026-05-08 07:06 | 49.20585 | 27.52877 | 19558 ft | 438 kts | 282° |
| 2026-05-08 07:06 | 49.21371 | 27.48365 | 19933 ft | 440 kts | 282° |
| 2026-05-08 07:06 | 49.22158 | 27.43827 | 20310 ft | 443 kts | 282° |
| 2026-05-08 07:06 | 49.22949 | 27.39264 | 20673 ft | 445 kts | 282° |
| 2026-05-08 07:07 | 49.23745 | 27.34679 | 21025 ft | 447 kts | 282° |
| 2026-05-08 07:07 | 49.24545 | 27.30061 | 21376 ft | 449 kts | 282° |
| 2026-05-08 07:07 | 49.25331 | 27.25496 | 21722 ft | 452 kts | 282° |
| 2026-05-08 07:07 | 49.26133 | 27.20828 | 22059 ft | 454 kts | 282° |
| 2026-05-08 07:08 | 49.26937 | 27.16143 | 22402 ft | 456 kts | 282° |
| 2026-05-08 07:08 | 49.27744 | 27.11435 | 22741 ft | 458 kts | 282° |
| 2026-05-08 07:08 | 49.28551 | 27.06703 | 23065 ft | 460 kts | 282° |
| 2026-05-08 07:08 | 49.29359 | 27.01946 | 23376 ft | 463 kts | 282° |
| 2026-05-08 07:09 | 49.30168 | 26.97165 | 23682 ft | 465 kts | 281° |
| 2026-05-08 07:09 | 49.30978 | 26.92360 | 23970 ft | 467 kts | 281° |
| 2026-05-08 07:09 | 49.31792 | 26.87542 | 24290 ft | 467 kts | 282° |
| 2026-05-08 07:09 | 49.32594 | 26.82779 | 24593 ft | 468 kts | 281° |
| 2026-05-08 07:10 | 49.33405 | 26.77939 | 24895 ft | 470 kts | 281° |
| 2026-05-08 07:10 | 49.34214 | 26.73098 | 25308 ft | 468 kts | 281° |
| 2026-05-08 07:10 | 49.35018 | 26.68280 | 25747 ft | 465 kts | 281° |
| 2026-05-08 07:10 | 49.35813 | 26.63479 | 26174 ft | 464 kts | 281° |
| 2026-05-08 07:11 | 49.36604 | 26.58691 | 26566 ft | 463 kts | 281° |
| 2026-05-08 07:11 | 49.37395 | 26.53914 | 26955 ft | 462 kts | 282° |
| 2026-05-08 07:11 | 49.38455 | 26.49240 | 27354 ft | 465 kts | 291° |
| 2026-05-08 07:11 | 49.39979 | 26.44919 | 27738 ft | 469 kts | 300° |
| 2026-05-08 07:12 | 49.41986 | 26.40955 | 28110 ft | 473 kts | 310° |
| 2026-05-08 07:12 | 49.44380 | 26.37475 | 28493 ft | 475 kts | 315° |
| 2026-05-08 07:12 | 49.46842 | 26.34097 | 28893 ft | 475 kts | 315° |
| 2026-05-08 07:12 | 49.49301 | 26.30701 | 29257 ft | 475 kts | 314° |
| 2026-05-08 07:13 | 49.51752 | 26.27292 | 29613 ft | 475 kts | 314° |
| 2026-05-08 07:13 | 49.54194 | 26.23872 | 29966 ft | 475 kts | 314° |
| 2026-05-08 07:13 | 49.56632 | 26.20449 | 30292 ft | 474 kts | 314° |
| 2026-05-08 07:13 | 49.59066 | 26.17034 | 30604 ft | 473 kts | 314° |
| 2026-05-08 07:14 | 49.61462 | 26.13673 | 30935 ft | 471 kts | 314° |
| 2026-05-08 07:14 | 49.63881 | 26.10275 | 31273 ft | 470 kts | 314° |
| 2026-05-08 07:14 | 49.66289 | 26.06883 | 31628 ft | 468 kts | 314° |
| 2026-05-08 07:14 | 49.68694 | 26.03494 | 31905 ft | 468 kts | 314° |
| 2026-05-08 07:15 | 49.71102 | 26.00101 | 32202 ft | 467 kts | 314° |
| 2026-05-08 07:15 | 49.73499 | 25.96719 | 32526 ft | 466 kts | 314° |
| 2026-05-08 07:15 | 49.75890 | 25.93347 | 32845 ft | 465 kts | 314° |
| 2026-05-08 07:15 | 49.78272 | 25.89984 | 33170 ft | 463 kts | 314° |
| 2026-05-08 07:16 | 49.80612 | 25.86672 | 33482 ft | 461 kts | 314° |
| 2026-05-08 07:16 | 49.82973 | 25.83321 | 33784 ft | 460 kts | 314° |
| 2026-05-08 07:16 | 49.85327 | 25.79974 | 33981 ft | 460 kts | 314° |
| 2026-05-08 07:16 | 49.87688 | 25.76610 | 34032 ft | 463 kts | 313° |
| 2026-05-08 07:17 | 49.92435 | 25.69835 | 34009 ft | 464 kts | 313° |
| 2026-05-08 07:17 | 49.97197 | 25.63040 | 34008 ft | 465 kts | 313° |
| 2026-05-08 07:18 | 50.01917 | 25.56286 | 34008 ft | 465 kts | 313° |
| 2026-05-08 07:18 | 50.06668 | 25.49449 | 34008 ft | 465 kts | 313° |
| 2026-05-08 07:19 | 50.11414 | 25.42599 | 34023 ft | 466 kts | 313° |
| 2026-05-08 07:19 | 50.16164 | 25.35722 | 34015 ft | 467 kts | 313° |
| 2026-05-08 07:20 | 50.20887 | 25.28877 | 34011 ft | 467 kts | 313° |
| 2026-05-08 07:20 | 50.25644 | 25.21967 | 34018 ft | 467 kts | 313° |
| 2026-05-08 07:21 | 50.30396 | 25.15043 | 34040 ft | 467 kts | 313° |
| 2026-05-08 07:21 | 50.35147 | 25.08096 | 34033 ft | 468 kts | 313° |
| 2026-05-08 07:22 | 50.39899 | 25.01128 | 34030 ft | 468 kts | 313° |
| 2026-05-08 07:22 | 50.44613 | 24.94197 | 34011 ft | 467 kts | 312° |
| 2026-05-08 07:23 | 50.49344 | 24.87210 | 34013 ft | 467 kts | 312° |
| 2026-05-08 07:23 | 50.54082 | 24.80198 | 34026 ft | 468 kts | 312° |
| 2026-05-08 07:24 | 50.58817 | 24.73172 | 34020 ft | 468 kts | 312° |
| 2026-05-08 07:24 | 50.63522 | 24.66170 | 34017 ft | 469 kts | 312° |
| 2026-05-08 07:25 | 50.68260 | 24.59103 | 34026 ft | 469 kts | 312° |
| 2026-05-08 07:26 | 50.75363 | 24.48466 | 34045 ft | 469 kts | 311° |
| 2026-05-08 07:26 | 50.80093 | 24.41356 | 34036 ft | 469 kts | 311° |
| 2026-05-08 07:27 | 50.84792 | 24.34278 | 34040 ft | 470 kts | 311° |
| 2026-05-08 07:27 | 50.89520 | 24.27123 | 34036 ft | 470 kts | 311° |
| 2026-05-08 07:28 | 50.94241 | 24.19960 | 34036 ft | 469 kts | 311° |
| 2026-05-08 07:28 | 50.98944 | 24.12812 | 34026 ft | 468 kts | 311° |
| 2026-05-08 07:29 | 51.03609 | 24.05688 | 34022 ft | 469 kts | 311° |
| 2026-05-08 07:29 | 51.08308 | 23.98494 | 34029 ft | 469 kts | 311° |
| 2026-05-08 07:30 | 51.13010 | 23.91287 | 34032 ft | 469 kts | 311° |
| 2026-05-08 07:30 | 51.17709 | 23.84063 | 34045 ft | 470 kts | 311° |
| 2026-05-08 07:31 | 51.22410 | 23.76816 | 34051 ft | 470 kts | 310° |
| 2026-05-08 07:31 | 51.27076 | 23.69615 | 34055 ft | 471 kts | 313° |
| 2026-05-08 07:32 | 51.32555 | 23.63723 | 34037 ft | 482 kts | 331° |
| 2026-05-08 07:32 | 51.38917 | 23.60144 | 34075 ft | 487 kts | 339° |
| 2026-05-08 07:33 | 51.45378 | 23.56830 | 34045 ft | 488 kts | 339° |
| 2026-05-08 07:33 | 51.51800 | 23.53504 | 34045 ft | 489 kts | 338° |
| 2026-05-08 07:34 | 51.58274 | 23.50127 | 34057 ft | 489 kts | 338° |
| 2026-05-08 07:34 | 51.64748 | 23.46756 | 34056 ft | 489 kts | 338° |
| 2026-05-08 07:35 | 51.71229 | 23.43383 | 34058 ft | 489 kts | 338° |
| 2026-05-08 07:35 | 51.77668 | 23.40016 | 34062 ft | 491 kts | 338° |
| 2026-05-08 07:36 | 51.84175 | 23.36593 | 34063 ft | 492 kts | 338° |
| 2026-05-08 07:36 | 51.90692 | 23.33154 | 34045 ft | 493 kts | 338° |
| 2026-05-08 07:37 | 51.97213 | 23.29700 | 34060 ft | 493 kts | 338° |
| 2026-05-08 07:37 | 52.03737 | 23.26236 | 34059 ft | 493 kts | 338° |
| 2026-05-08 07:38 | 52.10219 | 23.22786 | 34055 ft | 494 kts | 338° |
| 2026-05-08 07:38 | 52.16759 | 23.19312 | 34050 ft | 495 kts | 338° |
| 2026-05-08 07:39 | 52.23316 | 23.15809 | 34039 ft | 496 kts | 338° |
| 2026-05-08 07:39 | 52.29886 | 23.12280 | 34050 ft | 497 kts | 338° |
| 2026-05-08 07:40 | 52.36411 | 23.08768 | 34054 ft | 497 kts | 338° |
| 2026-05-08 07:40 | 52.42985 | 23.05216 | 34064 ft | 498 kts | 338° |
| 2026-05-08 07:41 | 52.49558 | 23.01650 | 34064 ft | 498 kts | 337° |
| 2026-05-08 07:41 | 52.56135 | 22.98072 | 34080 ft | 498 kts | 337° |
| 2026-05-08 07:42 | 52.62731 | 22.94479 | 34076 ft | 499 kts | 337° |
| 2026-05-08 07:42 | 52.69282 | 22.90899 | 34072 ft | 500 kts | 337° |
| 2026-05-08 07:43 | 52.75880 | 22.87279 | 34077 ft | 500 kts | 337° |
| 2026-05-08 07:43 | 52.82477 | 22.83646 | 34082 ft | 500 kts | 337° |
| 2026-05-08 07:44 | 52.89066 | 22.80002 | 34114 ft | 499 kts | 337° |
| 2026-05-08 07:44 | 52.95604 | 22.76371 | 34083 ft | 499 kts | 337° |
| 2026-05-08 07:45 | 53.02196 | 22.72710 | 34084 ft | 499 kts | 337° |
| 2026-05-08 07:45 | 53.08783 | 22.69043 | 34017 ft | 497 kts | 337° |
| 2026-05-08 07:45 | 53.12061 | 22.67213 | 33379 ft | 497 kts | 337° |
| 2026-05-08 07:46 | 53.15331 | 22.65380 | 33070 ft | 497 kts | 337° |
| 2026-05-08 07:46 | 53.21926 | 22.61806 | 33059 ft | 502 kts | 343° |
| 2026-05-08 07:46 | 53.25345 | 22.60908 | 33089 ft | 507 kts | 354° |
| 2026-05-08 07:47 | 53.28878 | 22.60989 | 33088 ft | 510 kts | 5° |
| 2026-05-08 07:47 | 53.35829 | 22.63296 | 33080 ft | 509 kts | 12° |
| 2026-05-08 07:48 | 53.42755 | 22.65851 | 33086 ft | 509 kts | 12° |
| 2026-05-08 07:48 | 53.49673 | 22.68415 | 33087 ft | 509 kts | 12° |
| 2026-05-08 07:49 | 53.56544 | 22.70974 | 33094 ft | 509 kts | 12° |
| 2026-05-08 07:49 | 53.59999 | 22.72262 | 33221 ft | 508 kts | 12° |
| 2026-05-08 07:49 | 53.63453 | 22.73553 | 33484 ft | 508 kts | 12° |
| 2026-05-08 07:49 | 53.66900 | 22.74849 | 33760 ft | 508 kts | 12° |
| 2026-05-08 07:50 | 53.70345 | 22.76149 | 34022 ft | 508 kts | 11° |
| 2026-05-08 07:50 | 53.77245 | 22.78757 | 34098 ft | 508 kts | 11° |
| 2026-05-08 07:51 | 53.84144 | 22.81350 | 34104 ft | 508 kts | 11° |
| 2026-05-08 07:51 | 53.90995 | 22.83930 | 34104 ft | 508 kts | 11° |
| 2026-05-08 07:52 | 53.97888 | 22.86552 | 34115 ft | 508 kts | 12° |
| 2026-05-08 07:52 | 54.04786 | 22.89193 | 34117 ft | 508 kts | 12° |
| 2026-05-08 07:53 | 54.11479 | 22.93018 | 34134 ft | 509 kts | 21° |
| 2026-05-08 07:53 | 54.18028 | 22.97386 | 34139 ft | 508 kts | 21° |
| 2026-05-08 07:54 | 54.24616 | 23.01778 | 34133 ft | 508 kts | 21° |
| 2026-05-08 07:54 | 54.31224 | 23.06084 | 34139 ft | 508 kts | 16° |
| 2026-05-08 07:55 | 54.38035 | 23.09289 | 34133 ft | 507 kts | 14° |
| 2026-05-08 07:55 | 54.44845 | 23.12460 | 34137 ft | 507 kts | 14° |
| 2026-05-08 07:56 | 54.51608 | 23.15628 | 34143 ft | 507 kts | 14° |
| 2026-05-08 07:56 | 54.58412 | 23.18826 | 34184 ft | 507 kts | 14° |
| 2026-05-08 07:57 | 54.65211 | 23.22026 | 34168 ft | 506 kts | 14° |
| 2026-05-08 07:57 | 54.71991 | 23.25235 | 34165 ft | 505 kts | 14° |
| 2026-05-08 07:58 | 54.78719 | 23.28422 | 34161 ft | 505 kts | 14° |
| 2026-05-08 07:58 | 54.85490 | 23.31654 | 34156 ft | 505 kts | 13° |
| 2026-05-08 07:59 | 54.92247 | 23.34883 | 34169 ft | 503 kts | 13° |
| 2026-05-08 07:59 | 54.98981 | 23.38100 | 34164 ft | 501 kts | 13° |
| 2026-05-08 08:00 | 55.05662 | 23.41308 | 34164 ft | 501 kts | 13° |
| 2026-05-08 08:00 | 55.12371 | 23.44549 | 34172 ft | 500 kts | 13° |
| 2026-05-08 08:01 | 55.19057 | 23.47782 | 34180 ft | 498 kts | 13° |
| 2026-05-08 08:01 | 55.25718 | 23.51017 | 34183 ft | 496 kts | 13° |
| 2026-05-08 08:02 | 55.32317 | 23.54246 | 34183 ft | 495 kts | 13° |
| 2026-05-08 08:02 | 55.38947 | 23.57502 | 34174 ft | 494 kts | 14° |
| 2026-05-08 08:03 | 55.45558 | 23.60751 | 34188 ft | 492 kts | 14° |
| 2026-05-08 08:03 | 55.52140 | 23.63985 | 34192 ft | 490 kts | 14° |
| 2026-05-08 08:04 | 55.58660 | 23.67207 | 34189 ft | 489 kts | 14° |
| 2026-05-08 08:04 | 55.65208 | 23.70444 | 34195 ft | 488 kts | 14° |
| 2026-05-08 08:05 | 55.71728 | 23.73692 | 34204 ft | 486 kts | 14° |
| 2026-05-08 08:05 | 55.78230 | 23.76943 | 34206 ft | 485 kts | 14° |
| 2026-05-08 08:06 | 55.84727 | 23.80197 | 34208 ft | 484 kts | 14° |
| 2026-05-08 08:06 | 55.91167 | 23.83437 | 34210 ft | 484 kts | 14° |
| 2026-05-08 08:07 | 55.97642 | 23.86710 | 34235 ft | 482 kts | 14° |
| 2026-05-08 08:07 | 56.04073 | 23.89968 | 34232 ft | 479 kts | 14° |
| 2026-05-08 08:08 | 56.10461 | 23.93220 | 34227 ft | 476 kts | 14° |
| 2026-05-08 08:08 | 56.16823 | 23.96465 | 34220 ft | 475 kts | 15° |
| 2026-05-08 08:09 | 56.23133 | 23.99692 | 34224 ft | 474 kts | 15° |
| 2026-05-08 08:09 | 56.29475 | 24.02866 | 34223 ft | 473 kts | 11° |
| 2026-05-08 08:10 | 56.35974 | 24.04460 | 34219 ft | 471 kts | 5° |
| 2026-05-08 08:10 | 56.42487 | 24.05864 | 34224 ft | 471 kts | 5° |
| 2026-05-08 08:11 | 56.48964 | 24.07267 | 34244 ft | 472 kts | 5° |
| 2026-05-08 08:11 | 56.55479 | 24.08690 | 34241 ft | 472 kts | 5° |
| 2026-05-08 08:12 | 56.61995 | 24.10103 | 34239 ft | 472 kts | 5° |
| 2026-05-08 08:12 | 56.68511 | 24.11524 | 34260 ft | 471 kts | 5° |
| 2026-05-08 08:13 | 56.75014 | 24.12943 | 34269 ft | 470 kts | 5° |
| 2026-05-08 08:13 | 56.81452 | 24.14354 | 34273 ft | 469 kts | 5° |
| 2026-05-08 08:14 | 56.87926 | 24.15784 | 34276 ft | 468 kts | 5° |
| 2026-05-08 08:14 | 56.94381 | 24.17222 | 34287 ft | 467 kts | 5° |
| 2026-05-08 08:15 | 57.00824 | 24.18653 | 34279 ft | 466 kts | 5° |
| 2026-05-08 08:15 | 57.07250 | 24.20091 | 34284 ft | 465 kts | 5° |
| 2026-05-08 08:16 | 57.13628 | 24.21529 | 34287 ft | 464 kts | 5° |
| 2026-05-08 08:16 | 57.20037 | 24.22956 | 34282 ft | 464 kts | 4° |
| 2026-05-08 08:17 | 57.26443 | 24.24393 | 34292 ft | 464 kts | 5° |
| 2026-05-08 08:17 | 57.32853 | 24.25846 | 34282 ft | 464 kts | 5° |
| 2026-05-08 08:18 | 57.39226 | 24.27296 | 34280 ft | 465 kts | 5° |
| 2026-05-08 08:18 | 57.45649 | 24.28759 | 34277 ft | 465 kts | 5° |
| 2026-05-08 08:19 | 57.52073 | 24.30220 | 34281 ft | 465 kts | 5° |
| 2026-05-08 08:19 | 57.58498 | 24.31691 | 34292 ft | 464 kts | 5° |
| 2026-05-08 08:20 | 57.64857 | 24.33164 | 34303 ft | 464 kts | 5° |
| 2026-05-08 08:20 | 57.71263 | 24.34643 | 34303 ft | 463 kts | 5° |
| 2026-05-08 08:21 | 57.77654 | 24.36135 | 34300 ft | 463 kts | 5° |
| 2026-05-08 08:21 | 57.84036 | 24.37626 | 34303 ft | 461 kts | 5° |
| 2026-05-08 08:22 | 57.90349 | 24.39088 | 34312 ft | 459 kts | 5° |
| 2026-05-08 08:22 | 57.96685 | 24.40569 | 34321 ft | 458 kts | 5° |
| 2026-05-08 08:23 | 58.03000 | 24.42052 | 34314 ft | 457 kts | 5° |
| 2026-05-08 08:23 | 58.09300 | 24.43549 | 34310 ft | 456 kts | 5° |
| 2026-05-08 08:24 | 58.15552 | 24.45034 | 34322 ft | 455 kts | 5° |
| 2026-05-08 08:24 | 58.21819 | 24.46519 | 34319 ft | 453 kts | 5° |
| 2026-05-08 08:25 | 58.28068 | 24.48000 | 34315 ft | 452 kts | 5° |
| 2026-05-08 08:25 | 58.34307 | 24.49495 | 34326 ft | 452 kts | 5° |
| 2026-05-08 08:26 | 58.40501 | 24.50972 | 34347 ft | 451 kts | 4° |
| 2026-05-08 08:26 | 58.46720 | 24.52474 | 34338 ft | 449 kts | 4° |
| 2026-05-08 08:27 | 58.52904 | 24.53976 | 34332 ft | 447 kts | 4° |
| 2026-05-08 08:27 | 58.59065 | 24.55465 | 34123 ft | 444 kts | 4° |
| 2026-05-08 08:27 | 58.62086 | 24.56199 | 33500 ft | 443 kts | 4° |
| 2026-05-08 08:28 | 58.65143 | 24.56949 | 33286 ft | 445 kts | 4° |
| 2026-05-08 08:28 | 58.71298 | 24.58459 | 33302 ft | 446 kts | 3° |
| 2026-05-08 08:29 | 58.77430 | 24.60287 | 33315 ft | 447 kts | 6° |
| 2026-05-08 08:29 | 58.83534 | 24.62604 | 33317 ft | 447 kts | 7° |
| 2026-05-08 08:30 | 58.89593 | 24.64941 | 33323 ft | 447 kts | 7° |
| 2026-05-08 08:30 | 58.98749 | 24.68272 | 33344 ft | 446 kts | 5° |
| 2026-05-08 08:31 | 59.04815 | 24.70451 | 32712 ft | 442 kts | 5° |
| 2026-05-08 08:31 | 59.07845 | 24.71545 | 31966 ft | 444 kts | 5° |
| 2026-05-08 08:31 | 59.10889 | 24.72642 | 31215 ft | 446 kts | 6° |
| 2026-05-08 08:32 | 59.13946 | 24.73752 | 30460 ft | 448 kts | 6° |
| 2026-05-08 08:32 | 59.16977 | 24.74862 | 29581 ft | 450 kts | 6° |
| 2026-05-08 08:32 | 59.20061 | 24.76001 | 28681 ft | 452 kts | 6° |
| 2026-05-08 08:32 | 59.23167 | 24.77155 | 27777 ft | 454 kts | 6° |
| 2026-05-08 08:33 | 59.26275 | 24.78313 | 26866 ft | 457 kts | 6° |
| 2026-05-08 08:33 | 59.29402 | 24.79479 | 25945 ft | 459 kts | 6° |
| 2026-05-08 08:33 | 59.32546 | 24.80646 | 25019 ft | 461 kts | 7° |
| 2026-05-08 08:33 | 59.35705 | 24.81815 | 24089 ft | 463 kts | 7° |
| 2026-05-08 08:34 | 59.38858 | 24.82985 | 23369 ft | 459 kts | 7° |
| 2026-05-08 08:34 | 59.41886 | 24.84541 | 22654 ft | 457 kts | 15° |
| 2026-05-08 08:34 | 59.44829 | 24.86848 | 21899 ft | 453 kts | 19° |
| 2026-05-08 08:34 | 59.47706 | 24.89236 | 21195 ft | 448 kts | 19° |
| 2026-05-08 08:35 | 59.50559 | 24.91616 | 20508 ft | 443 kts | 19° |
| 2026-05-08 08:35 | 59.53385 | 24.93974 | 19852 ft | 438 kts | 18° |
| 2026-05-08 08:35 | 59.56171 | 24.96300 | 19191 ft | 432 kts | 18° |
| 2026-05-08 08:35 | 59.58922 | 24.98598 | 18519 ft | 428 kts | 18° |
| 2026-05-08 08:36 | 59.61646 | 25.00881 | 17750 ft | 423 kts | 19° |
| 2026-05-08 08:36 | 59.64337 | 25.03137 | 17015 ft | 418 kts | 19° |
| 2026-05-08 08:36 | 59.66963 | 25.05337 | 16325 ft | 413 kts | 19° |
| 2026-05-08 08:36 | 59.69583 | 25.07537 | 15926 ft | 402 kts | 19° |
| 2026-05-08 08:37 | 59.72108 | 25.09669 | 15789 ft | 387 kts | 19° |
| 2026-05-08 08:37 | 59.74536 | 25.11723 | 15659 ft | 372 kts | 19° |
| 2026-05-08 08:37 | 59.76869 | 25.13694 | 15531 ft | 357 kts | 19° |
| 2026-05-08 08:37 | 59.79109 | 25.15590 | 15404 ft | 343 kts | 19° |
| 2026-05-08 08:38 | 59.81261 | 25.17410 | 15312 ft | 330 kts | 18° |
| 2026-05-08 08:38 | 59.83329 | 25.19165 | 15186 ft | 317 kts | 18° |
| 2026-05-08 08:38 | 59.85322 | 25.20864 | 15060 ft | 305 kts | 18° |
| 2026-05-08 08:38 | 59.87217 | 25.22474 | 14896 ft | 296 kts | 18° |
| 2026-05-08 08:39 | 59.89137 | 25.23746 | 14590 ft | 287 kts | 6° |
| 2026-05-08 08:39 | 59.91094 | 25.24076 | 14251 ft | 279 kts | 354° |
| 2026-05-08 08:39 | 59.92997 | 25.23516 | 13860 ft | 275 kts | 342° |
| 2026-05-08 08:39 | 59.94809 | 25.22374 | 13427 ft | 274 kts | 340° |
| 2026-05-08 08:40 | 59.96625 | 25.21218 | 12989 ft | 274 kts | 341° |
| 2026-05-08 08:40 | 59.98443 | 25.20068 | 12589 ft | 273 kts | 341° |
| 2026-05-08 08:40 | 60.00250 | 25.18922 | 12198 ft | 272 kts | 341° |
| 2026-05-08 08:40 | 60.02025 | 25.17796 | 11826 ft | 271 kts | 341° |
| 2026-05-08 08:41 | 60.03815 | 25.16661 | 11451 ft | 270 kts | 341° |
| 2026-05-08 08:41 | 60.05599 | 25.15526 | 11091 ft | 268 kts | 341° |
| 2026-05-08 08:41 | 60.07374 | 25.14389 | 10730 ft | 267 kts | 341° |
| 2026-05-08 08:41 | 60.09143 | 25.13261 | 10372 ft | 266 kts | 341° |
| 2026-05-08 08:42 | 60.10908 | 25.12135 | 9999 ft | 265 kts | 342° |
| 2026-05-08 08:42 | 60.12633 | 25.10874 | 9610 ft | 264 kts | 333° |
| 2026-05-08 08:42 | 60.14127 | 25.08777 | 9240 ft | 263 kts | 317° |
| 2026-05-08 08:42 | 60.15247 | 25.05956 | 8883 ft | 263 kts | 302° |
| 2026-05-08 08:43 | 60.16066 | 25.02660 | 8508 ft | 263 kts | 298° |
| 2026-05-08 08:43 | 60.16864 | 24.99358 | 8136 ft | 263 kts | 298° |
| 2026-05-08 08:43 | 60.17603 | 24.96006 | 7765 ft | 264 kts | 289° |
| 2026-05-08 08:43 | 60.17805 | 24.92340 | 7410 ft | 268 kts | 268° |
| 2026-05-08 08:44 | 60.17318 | 24.88707 | 7031 ft | 273 kts | 246° |
| 2026-05-08 08:44 | 60.16204 | 24.85659 | 6830 ft | 269 kts | 229° |
| 2026-05-08 08:44 | 60.14945 | 24.82955 | 6691 ft | 260 kts | 229° |
| 2026-05-08 08:44 | 60.13756 | 24.80373 | 6555 ft | 251 kts | 230° |
| 2026-05-08 08:45 | 60.12592 | 24.77816 | 6308 ft | 246 kts | 230° |
| 2026-05-08 08:45 | 60.11445 | 24.75281 | 5930 ft | 247 kts | 230° |
| 2026-05-08 08:45 | 60.10283 | 24.72706 | 5506 ft | 250 kts | 230° |
| 2026-05-08 08:45 | 60.09117 | 24.70121 | 5158 ft | 250 kts | 230° |
| 2026-05-08 08:46 | 60.07951 | 24.67544 | 4826 ft | 249 kts | 230° |
| 2026-05-08 08:46 | 60.06789 | 24.64975 | 4493 ft | 248 kts | 232° |
| 2026-05-08 08:46 | 60.05897 | 24.62085 | 4164 ft | 241 kts | 252° |
| 2026-05-08 08:46 | 60.05548 | 24.58853 | 4051 ft | 238 kts | 272° |
| 2026-05-08 08:47 | 60.05759 | 24.55663 | 3929 ft | 233 kts | 291° |
| 2026-05-08 08:47 | 60.06491 | 24.52817 | 3785 ft | 229 kts | 311° |
| 2026-05-08 08:47 | 60.07633 | 24.50653 | 3656 ft | 226 kts | 329° |
| 2026-05-08 08:47 | 60.09053 | 24.49362 | 3524 ft | 224 kts | 347° |
| 2026-05-08 08:48 | 60.10587 | 24.49073 | 3392 ft | 222 kts | 5° |
| 2026-05-08 08:48 | 60.12088 | 24.49788 | 3255 ft | 223 kts | 24° |
| 2026-05-08 08:48 | 60.13396 | 24.51438 | 3120 ft | 224 kts | 41° |
| 2026-05-08 08:48 | 60.14453 | 24.53667 | 2985 ft | 224 kts | 46° |
| 2026-05-08 08:49 | 60.15507 | 24.55979 | 2858 ft | 225 kts | 46° |
| 2026-05-08 08:49 | 60.16565 | 24.58285 | 2719 ft | 225 kts | 46° |
| 2026-05-08 08:49 | 60.17628 | 24.60587 | 2588 ft | 223 kts | 46° |
| 2026-05-08 08:49 | 60.18679 | 24.62866 | 2500 ft | 219 kts | 46° |
| 2026-05-08 08:50 | 60.19690 | 24.65059 | 2371 ft | 211 kts | 45° |
| 2026-05-08 08:50 | 60.20679 | 24.67205 | 2299 ft | 207 kts | 45° |
| 2026-05-08 08:50 | 60.21653 | 24.69323 | 2304 ft | 206 kts | 45° |
| 2026-05-08 08:50 | 60.22614 | 24.71414 | 2307 ft | 205 kts | 45° |
| 2026-05-08 08:51 | 60.23583 | 24.73523 | 2303 ft | 206 kts | 44° |
| 2026-05-08 08:51 | 60.24544 | 24.75618 | 2162 ft | 200 kts | 44° |
| 2026-05-08 08:51 | 60.25459 | 24.77617 | 1886 ft | 188 kts | 45° |
| 2026-05-08 08:51 | 60.26296 | 24.79447 | 1674 ft | 165 kts | 43° |
| 2026-05-08 08:52 | 60.27028 | 24.81049 | 1448 ft | 147 kts | 43° |
| 2026-05-08 08:52 | 60.27706 | 24.82531 | 1232 ft | 142 kts | 44° |
| 2026-05-08 08:52 | 60.28362 | 24.83962 | 1042 ft | 142 kts | 44° |
| 2026-05-08 08:52 | 60.29028 | 24.85418 | 833 ft | 141 kts | 45° |
| 2026-05-08 08:53 | 60.29689 | 24.86873 | 670 ft | 143 kts | 45° |
| 2026-05-08 08:53 | 60.30370 | 24.88334 | 469 ft | 144 kts | 44° |
| 2026-05-08 08:53 | 60.31038 | 24.89811 | 274 ft | 142 kts | 44° |
| 2026-05-08 08:53 | 60.31687 | 24.91265 | 150 ft | 128 kts | 37° |
| 2026-05-08 08:54 | 60.32182 | 24.92338 | 164 ft | 80 kts | 47° |
| 2026-05-08 08:54 | 60.32459 | 24.92945 | 173 ft | 47 kts | 47° |
| 2026-05-08 08:54 | 60.32665 | 24.93399 | 180 ft | 41 kts | 47° |
| 2026-05-08 08:54 | 60.32849 | 24.93803 | 182 ft | 39 kts | 47° |
| 2026-05-08 08:55 | 60.33009 | 24.94157 | 195 ft | 19 kts | 48° |
| 2026-05-08 08:55 | 60.33049 | 24.94309 | 191 ft | 11 kts | 80° |
| 2026-05-08 08:55 | 60.33048 | 24.94478 | 186 ft | 14 kts | 93° |
| 2026-05-08 08:55 | 60.33017 | 24.94683 | 181 ft | 18 kts | 135° |
| 2026-05-08 08:56 | 60.32917 | 24.94867 | 176 ft | 20 kts | 139° |
| 2026-05-08 08:56 | 60.32788 | 24.94981 | 177 ft | 20 kts | 162° |
| 2026-05-08 08:56 | 60.32660 | 24.95064 | 180 ft | 19 kts | 162° |
| 2026-05-08 08:56 | 60.32536 | 24.95146 | 180 ft | 19 kts | 161° |
| 2026-05-08 08:57 | 60.32401 | 24.95236 | 178 ft | 21 kts | 161° |
| 2026-05-08 08:57 | 60.32271 | 24.95394 | 175 ft | 23 kts | 138° |
| 2026-05-08 08:57 | 60.32149 | 24.95621 | 173 ft | 24 kts | 137° |
| 2026-05-08 08:57 | 60.32028 | 24.95844 | 174 ft | 20 kts | 137° |
| 2026-05-08 08:58 | 60.31946 | 24.95961 | 171 ft | 13 kts | 176° |
| 2026-05-08 08:58 | 60.31873 | 24.95834 | 169 ft | 15 kts | 228° |
| 2026-05-08 08:58 | 60.31800 | 24.95676 | 170 ft | 15 kts | 227° |
| 2026-05-08 08:58 | 60.31727 | 24.95538 | 170 ft | 14 kts | 195° |
| 2026-05-08 08:59 | 60.31644 | 24.95650 | 167 ft | 14 kts | 139° |
| 2026-05-08 08:59 | 60.31580 | 24.95632 | 166 ft | 10 kts | 226° |
| 2026-05-08 08:59 | 60.31528 | 24.95522 | 167 ft | 11 kts | 227° |
| 2026-05-08 08:59 | 60.31479 | 24.95416 | 166 ft | 7 kts | 216° |
| 2026-05-08 09:00 | 60.31444 | 24.95456 | 166 ft | 7 kts | 137° |
| 2026-05-08 09:00 | 60.31419 | 24.95503 | 166 ft | 1 kts | 137° |
| 2026-05-08 09:00 | 60.31413 | 24.95514 | 166 ft | 0 kts | 137° |
| 2026-05-08 09:00 | 60.31413 | 24.95515 | 166 ft | 0 kts | 137° |